AirNav   Everest Fuels
 
 312 users online  

MD01 Wingfield Airport
Dameron, Maryland, USA

GOING TO DAMERON?


FAA INFORMATION EFFECTIVE 18 JUNE 2020

Location

FAA Identifier: MD01
Lat/Long: 38-08-36.4510N 076-21-23.8130W
38-08.607517N 076-21.396883W
38.1434586,-76.3566147
(estimated)
Elevation: 20 ft. / 6.1 m (surveyed)
Variation: 10W (1985)
From city: 2 miles NE of DAMERON, MD
Time zone: UTC -4 (UTC -5 during Standard Time)
Zip code: 20628

Airport Operations

Airport use: Private use, PERSONAL USE.
Activation date: 05/1988
Control tower: no
ARTCC: WASHINGTON CENTER
FSS: LEESBURG FLIGHT SERVICE STATION
Attendance: CONTINUOUS
Wind indicator: yes
Segmented circle: no

Airport Communications

WX AWOS-3 at 2W6 (14 nm NW): 119.575 (301-373-6514)

Nearby radio navigation aids

VOR radial/distance  VOR name  Freq  Var
PXTr177/8.9PATUXENT VORTAC117.6010W
OTTr162/38.4NOTTINGHAM VORTAC113.7010W

 
NDB name  Hdg/Dist  Freq  Var  ID
PATUXENT176/8.840010WNHK -. .... -.-

Airport Services

Fuel available: MOGAS

Runway Information

Runway 11/29

Dimensions: 1200 x 50 ft. / 366 x 15 m
Surface: turf
RUNWAY 11  RUNWAY 29
Traffic pattern: rightleft
Obstructions: 60 ft. trees, 1000 ft. from runwaynone

Runway 1W/19W

Dimensions: 4200 x 500 ft. / 1280 x 152 m
Surface: water
RUNWAY 1W  RUNWAY 19W
Traffic pattern: leftleft

Runway 14W/32W

Dimensions: 3600 x 300 ft. / 1097 x 91 m
Surface: water
RUNWAY 14W  RUNWAY 32W
Traffic pattern: leftleft

Airport Ownership and Management from official FAA records

Ownership: Privately-owned
Owner: SANDRA D. SWEIKAR
PO BOX 9, 49595 DIAMOND LA
DAMERON, MD 20628
Phone (301) 481-7648
Manager: SANDRA D. SWEIKAR
PO BOX 9, 49595 DIAMOND LA
DAMERON, MD 20628
Phone (301) 481-7648

Airport Operational Statistics

Aircraft based on the field: 1
Single engine airplanes: 1
    

Additional Remarks

LAND RY 29, DEP RY 11.
FOR CD CTC WASHINGTON ARTCC AT 703-771-3587.

Instrument Procedures

There are no published instrument procedures at MD01.

Some nearby airports with instrument procedures:

KNHK - Patuxent River Naval Air Station (Trapnell Field) (9 nm N)
2W6 - St Mary's County Regional Airport (14 nm NW)
KTGI - Tangier Island Airport (26 nm SE)
W41 - Crisfield-Somerset County Airport (26 nm E)
KCGE - Cambridge-Dorchester Regional Airport (28 nm NE)
 
Loc | Ops | Rwys | IFR | FBO | Links
Com | Nav | Svcs | Stats | Notes
Area around MD01 (Wingfield Airport)
 
Road maps at: MapQuest Bing Google
 
Aerial photo
WARNING: Photo may not be current or correct
Aerial photo of MD01 (Wingfield Airport)
Do you have a better or more recent aerial photo of Wingfield Airport that you would like to share? If so, please send us your photo.

 
Sectional chart

 
Airport distance calculator
Flying to Wingfield Airport? Find the distance to fly.

From to MD01

Sunrise and sunset
Times for 14-Jul-2020
 Local
(UTC-4)
 Zulu
(UTC)
Morning civil twilight05:2509:25
Sunrise05:5509:55
Sunset20:2700:27
Evening civil twilight20:5800:58

Current date and time
Zulu (UTC)  14-Jul-2020 10:09:44
Local (UTC-4)  14-Jul-2020 06:09:44
 
METAR
KNUI 
3nm W 
140953Z AUTO 00000KT 8SM SCT075 22/21 A2993 RMK AO2 SLP133 T02220206
KNHK 
8nm N 
140952Z 00000KT 10SM FEW070 SCT100 22/21 A2993 RMK AO2 TSE0857 SLP137 T02170211 $
K2W6 
14nm NW 
140955Z AUTO 00000KT 3/4SM BKN003 20/18 A2996 RMK AO1
TAF
KNHK 
8nm N 
1407/1507 VRB05KT 9999 FEW030 SCT040 OVC090 QNH2991INS BECMG 1414/1416 36010KT 9999 FEW025 SCT035 BKN050 QNH2995INS BECMG 1420/1422 VRB05KT 9999 FEW030 SCT085 QNH2995INS BECMG 1504/1506 27005KT 9999 SCT050 BKN065 BKN200 QNH2995INS AUTOMATED SENSOR METWATCH 1403 TIL 1408 T28/1409Z T21/1521Z FN00205
NOTAMs
Click for the latest NOTAMs
NOTAMs are issued by the DoD/FAA and will open in a separate window not controlled by AirNav.

 

 
 

Would you like to see your business listed on this page?

 If your business provides an interesting product or service to pilots, flight crews, aircraft, or users of the Wingfield Airport, you should consider listing it here.  To start the listing process, click on the button below
 
Add a business
 

Other Pages about Wingfield Airport

Update a link
 
Copyright © AirNav, LLC. All rights reserved. Privacy Policy  Contact